yapx.ru alexa rank chart, yapx.ru alexa rank daily changes

yapx.ru alexa rank chart, yapx.ru alexa rank daily changes

yapx.ru
Actual rank:
35 752

RANK HISTORY

Date Rank Diff
2019/01/23 35 752 +7 914
2019/01/22 27 838 -3 996
2019/01/21 31 834 -7 419
2019/01/20 39 253 -2 476
2019/01/19 41 729 -3 569
2019/01/18 45 298 +5 363
2019/01/17 39 935 -1 231
2019/01/16 41 166 +20 010
2019/01/15 21 156 -3 153
2019/01/14 24 309 -4 984
2019/01/13 29 293 -9 764
2019/01/12 39 057 -2 463
2019/01/11 41 520 +7 937
2019/01/10 33 583 -1 244
2019/01/09 34 827 +4 420
2019/01/08 30 407 -271
2019/01/07 30 678 +3 002
2019/01/06 27 676 -9 304
2019/01/05 36 980 +9 150
2019/01/04 27 830 -8 028
2019/01/03 35 858 +9 737
2019/01/02 26 121 +2 019
2019/01/01 24 102 +2 076
2018/12/31 22 026 -20 239
2018/12/30 42 265 -3 213
2018/12/29 45 478 -1 397
2018/12/28 46 875 +7 443
2018/12/27 39 432 +2 097
2018/12/26 37 335 +6 377
2018/12/25 30 958 -3 604
2018/12/24 34 562 -7 464
2018/12/23 42 026 +3 650
2018/12/22 38 376 +5 664
2018/12/21 32 712 -10 864
2018/12/20 43 576 -3 130
2018/12/19 46 706 +10 955
2018/12/18 35 751 +4 126
2018/12/17 31 625 -18 723
2018/12/16 50 348 +2 214
2018/12/15 48 134 +1 298
2018/12/14 46 836 +1 295
2018/12/13 45 541 -4 823
2018/12/12 50 364 +23 255
2018/12/11 27 109 -3 305
2018/12/10 30 414 -18 063
2018/12/09 48 477 -3 322
2018/12/08 51 799 +859
2018/12/07 50 940 +3 203
2018/12/06 47 737 +6 048
2018/12/05 41 689 +5 314
2018/12/04 36 375 +1 018
2018/12/03 35 357 -13 082
2018/12/02 48 439 +2 191
2018/12/01 46 248 -11 247
2018/11/30 57 495 +4 501
2018/11/29 52 994 +8 276
2018/11/28 44 718 +7 476
2018/11/27 37 242 +4 199
2018/11/26 33 043 -8 828
2018/11/25 41 871 -9 230
2018/11/24 51 101

WIDGET FOR YOUR SITE

DOMAINS WITH THE NEAREST RANK

Domain Rank
optimizesmart.com 35 747
survstat.ru 35 748
mexx-buy.ru 35 749
en365.ru 35 750
rwupv.xyz 35 751
yapx.ru 35 752
synonymes.com 35 753
wirelesshack.org 35 754
serijeonline.net 35 755
humankinetics.com 35 756
faceprep.in 35 757

DOMAINS WITH THE NEAREST RANK BY TLD .ru

Domain Rank
podrygka.ru 35 681
militaryarms.ru 35 688
survstat.ru 35 748
mexx-buy.ru 35 749
en365.ru 35 750
yapx.ru 35 752
5play.ru 35 759
vodakanazer.ru 35 773
sad-i-ogorod.ru 35 788
vladtime.ru 35 797
stalkermod.ru 35 824